sensor_id;sensor_type;location;lat;lon;timestamp;pressure;altitude;pressure_sealevel;temperature;humidity
78409;BME280;67697;50.750;-3.270;2023-04-28T00:01:20;100148.38;;;12.99;67.83
78409;BME280;67697;50.750;-3.270;2023-04-28T00:03:46;100146.82;;;12.97;67.35
78409;BME280;67697;50.750;-3.270;2023-04-28T00:06:12;100148.00;;;12.77;68.14
78409;BME280;67697;50.750;-3.270;2023-04-28T00:08:37;100141.13;;;13.32;66.69
78409;BME280;67697;50.750;-3.270;2023-04-28T00:11:03;100138.78;;;12.95;67.00
78409;BME280;67697;50.750;-3.270;2023-04-28T00:13:28;100140.27;;;13.79;65.04
78409;BME280;67697;50.750;-3.270;2023-04-28T00:15:54;100141.79;;;14.67;62.54
78409;BME280;67697;50.750;-3.270;2023-04-28T00:18:20;100144.06;;;14.43;62.47
78409;BME280;67697;50.750;-3.270;2023-04-28T00:20:45;100144.06;;;14.26;62.50
78409;BME280;67697;50.750;-3.270;2023-04-28T00:23:11;100142.30;;;13.91;64.03
78409;BME280;67697;50.750;-3.270;2023-04-28T00:25:37;100141.66;;;13.57;64.63
78409;BME280;67697;50.750;-3.270;2023-04-28T00:28:02;100140.96;;;13.01;66.41
78409;BME280;67697;50.750;-3.270;2023-04-28T00:30:29;100143.00;;;13.86;64.83
78409;BME280;67697;50.750;-3.270;2023-04-28T00:32:54;100147.27;;;13.51;65.03
78409;BME280;67697;50.750;-3.270;2023-04-28T00:35:19;100149.43;;;11.91;68.57
78409;BME280;67697;50.750;-3.270;2023-04-28T00:37:45;100149.21;;;12.26;69.32
78409;BME280;67697;50.750;-3.270;2023-04-28T00:40:11;100147.48;;;13.17;67.26
78409;BME280;67697;50.750;-3.270;2023-04-28T00:42:36;100147.33;;;13.80;65.72
78409;BME280;67697;50.750;-3.270;2023-04-28T00:45:01;100146.24;;;13.68;64.80
78409;BME280;67697;50.750;-3.270;2023-04-28T00:47:27;100147.88;;;13.66;64.43
78409;BME280;67697;50.750;-3.270;2023-04-28T00:49:53;100153.83;;;14.32;62.62
78409;BME280;67697;50.750;-3.270;2023-04-28T00:52:18;100151.86;;;14.09;63.74
78409;BME280;67697;50.750;-3.270;2023-04-28T00:54:45;100152.65;;;14.09;63.38
78409;BME280;67697;50.750;-3.270;2023-04-28T00:57:10;100155.51;;;13.97;63.61
78409;BME280;67697;50.750;-3.270;2023-04-28T00:59:35;100157.79;;;13.55;65.17
78409;BME280;67697;50.750;-3.270;2023-04-28T01:02:01;100158.71;;;13.26;65.86
78409;BME280;67697;50.750;-3.270;2023-04-28T01:04:28;100160.03;;;13.24;65.51
78409;BME280;67697;50.750;-3.270;2023-04-28T01:06:53;100165.33;;;14.75;61.86
78409;BME280;67697;50.750;-3.270;2023-04-28T01:09:18;100161.50;;;15.05;59.99
78409;BME280;67697;50.750;-3.270;2023-04-28T01:11:44;100161.69;;;15.52;58.30
78409;BME280;67697;50.750;-3.270;2023-04-28T01:14:09;100162.06;;;15.73;57.72
78409;BME280;67697;50.750;-3.270;2023-04-28T01:16:35;100156.74;;;16.24;56.01
78409;BME280;67697;50.750;-3.270;2023-04-28T01:19:00;100164.71;;;15.86;56.59
78409;BME280;67697;50.750;-3.270;2023-04-28T01:21:26;100168.09;;;15.64;57.63
78409;BME280;67697;50.750;-3.270;2023-04-28T01:23:51;100164.95;;;15.24;58.02
78409;BME280;67697;50.750;-3.270;2023-04-28T01:26:17;100162.73;;;15.17;58.27
78409;BME280;67697;50.750;-3.270;2023-04-28T01:28:43;100161.89;;;14.53;60.32
78409;BME280;67697;50.750;-3.270;2023-04-28T01:31:08;100165.82;;;14.40;60.80
78409;BME280;67697;50.750;-3.270;2023-04-28T01:33:34;100167.88;;;13.60;63.61
78409;BME280;67697;50.750;-3.270;2023-04-28T01:36:00;100168.03;;;13.95;62.29
78409;BME280;67697;50.750;-3.270;2023-04-28T01:38:25;100169.16;;;14.56;61.11
78409;BME280;67697;50.750;-3.270;2023-04-28T01:40:53;100169.87;;;14.39;60.63
78409;BME280;67697;50.750;-3.270;2023-04-28T01:43:16;100168.58;;;12.81;62.87
78409;BME280;67697;50.750;-3.270;2023-04-28T01:45:42;100170.97;;;13.39;62.64
78409;BME280;67697;50.750;-3.270;2023-04-28T01:48:08;100175.27;;;13.98;61.36
78409;BME280;67697;50.750;-3.270;2023-04-28T01:50:33;100176.21;;;14.25;60.96
78409;BME280;67697;50.750;-3.270;2023-04-28T01:52:59;100179.27;;;14.25;60.54
78409;BME280;67697;50.750;-3.270;2023-04-28T01:55:24;100178.84;;;14.59;59.81
78409;BME280;67697;50.750;-3.270;2023-04-28T01:57:50;100178.71;;;14.47;60.25
78409;BME280;67697;50.750;-3.270;2023-04-28T02:00:16;100180.44;;;14.15;60.66
78409;BME280;67697;50.750;-3.270;2023-04-28T02:02:41;100184.98;;;13.15;64.01
78409;BME280;67697;50.750;-3.270;2023-04-28T02:05:07;100192.94;;;12.82;65.73
78409;BME280;67697;50.750;-3.270;2023-04-28T02:07:32;100198.45;;;12.39;67.59
78409;BME280;67697;50.750;-3.270;2023-04-28T02:09:58;100202.23;;;12.03;69.53
78409;BME280;67697;50.750;-3.270;2023-04-28T02:12:24;100200.96;;;11.79;71.15
78409;BME280;67697;50.750;-3.270;2023-04-28T02:14:50;100199.42;;;12.11;70.42
78409;BME280;67697;50.750;-3.270;2023-04-28T02:17:15;100202.20;;;12.53;68.82
78409;BME280;67697;50.750;-3.270;2023-04-28T02:19:41;100202.03;;;12.33;69.54
78409;BME280;67697;50.750;-3.270;2023-04-28T02:22:06;100196.06;;;12.94;67.26
78409;BME280;67697;50.750;-3.270;2023-04-28T02:24:34;100190.79;;;13.57;64.41
78409;BME280;67697;50.750;-3.270;2023-04-28T02:26:57;100191.22;;;13.19;64.56
78409;BME280;67697;50.750;-3.270;2023-04-28T02:29:23;100195.70;;;14.05;62.76
78409;BME280;67697;50.750;-3.270;2023-04-28T02:31:49;100194.64;;;13.69;63.48
78409;BME280;67697;50.750;-3.270;2023-04-28T02:34:14;100205.11;;;13.94;63.11
78409;BME280;67697;50.750;-3.270;2023-04-28T02:36:40;100206.04;;;13.94;62.68
78409;BME280;67697;50.750;-3.270;2023-04-28T02:39:06;100208.73;;;14.00;62.80
78409;BME280;67697;50.750;-3.270;2023-04-28T02:41:31;100207.69;;;13.36;64.17
78409;BME280;67697;50.750;-3.270;2023-04-28T02:43:57;100207.89;;;13.26;64.51
78409;BME280;67697;50.750;-3.270;2023-04-28T02:46:23;100207.29;;;13.10;65.03
78409;BME280;67697;50.750;-3.270;2023-04-28T02:48:48;100210.20;;;13.60;64.27
78409;BME280;67697;50.750;-3.270;2023-04-28T02:51:14;100212.88;;;14.02;62.60
78409;BME280;67697;50.750;-3.270;2023-04-28T02:53:40;100214.19;;;14.03;62.58
78409;BME280;67697;50.750;-3.270;2023-04-28T02:56:05;100217.12;;;14.99;59.83
78409;BME280;67697;50.750;-3.270;2023-04-28T02:58:31;100216.17;;;14.39;60.75
78409;BME280;67697;50.750;-3.270;2023-04-28T03:00:56;100213.63;;;13.84;62.15
78409;BME280;67697;50.750;-3.270;2023-04-28T03:03:22;100214.61;;;14.36;61.40
78409;BME280;67697;50.750;-3.270;2023-04-28T03:05:47;100209.98;;;14.60;60.50
78409;BME280;67697;50.750;-3.270;2023-04-28T03:08:13;100211.52;;;14.90;59.66
78409;BME280;67697;50.750;-3.270;2023-04-28T03:10:39;100215.10;;;13.82;62.68
78409;BME280;67697;50.750;-3.270;2023-04-28T03:13:04;100215.42;;;13.53;63.45
78409;BME280;67697;50.750;-3.270;2023-04-28T03:15:30;100217.53;;;13.80;62.57
78409;BME280;67697;50.750;-3.270;2023-04-28T03:17:55;100215.66;;;13.36;63.95
78409;BME280;67697;50.750;-3.270;2023-04-28T03:20:21;100215.99;;;14.04;61.92
78409;BME280;67697;50.750;-3.270;2023-04-28T03:22:47;100220.18;;;13.22;64.25
78409;BME280;67697;50.750;-3.270;2023-04-28T03:25:12;100218.05;;;13.63;62.98
78409;BME280;67697;50.750;-3.270;2023-04-28T03:27:38;100218.75;;;13.58;63.19
78409;BME280;67697;50.750;-3.270;2023-04-28T03:30:05;100216.70;;;13.86;63.42
78409;BME280;67697;50.750;-3.270;2023-04-28T03:32:29;100219.71;;;13.35;63.95
78409;BME280;67697;50.750;-3.270;2023-04-28T03:34:55;100221.31;;;13.78;63.12
78409;BME280;67697;50.750;-3.270;2023-04-28T03:37:20;100226.41;;;13.88;62.92
78409;BME280;67697;50.750;-3.270;2023-04-28T03:39:46;100226.84;;;13.77;62.47
78409;BME280;67697;50.750;-3.270;2023-04-28T03:42:11;100232.45;;;12.77;64.59
78409;BME280;67697;50.750;-3.270;2023-04-28T03:44:37;100237.91;;;12.11;68.21
78409;BME280;67697;50.750;-3.270;2023-04-28T03:47:03;100252.32;;;11.26;72.53
78409;BME280;67697;50.750;-3.270;2023-04-28T03:49:28;100254.92;;;11.12;72.18
78409;BME280;67697;50.750;-3.270;2023-04-28T03:51:53;100258.11;;;11.18;71.98
78409;BME280;67697;50.750;-3.270;2023-04-28T03:54:19;100252.15;;;10.61;74.15
78409;BME280;67697;50.750;-3.270;2023-04-28T03:56:45;100255.34;;;11.44;72.05
78409;BME280;67697;50.750;-3.270;2023-04-28T03:59:10;100255.50;;;10.80;71.72
78409;BME280;67697;50.750;-3.270;2023-04-28T04:01:36;100256.16;;;10.99;71.95
78409;BME280;67697;50.750;-3.270;2023-04-28T04:04:02;100259.33;;;10.76;73.04
78409;BME280;67697;50.750;-3.270;2023-04-28T04:06:27;100263.57;;;11.45;71.37
78409;BME280;67697;50.750;-3.270;2023-04-28T04:08:53;100268.37;;;11.40;71.22
78409;BME280;67697;50.750;-3.270;2023-04-28T04:11:18;100272.91;;;11.03;71.54
78409;BME280;67697;50.750;-3.270;2023-04-28T04:13:44;100281.60;;;11.08;71.74
78409;BME280;67697;50.750;-3.270;2023-04-28T04:16:10;100281.71;;;10.48;74.41
78409;BME280;67697;50.750;-3.270;2023-04-28T04:18:35;100288.08;;;10.95;72.77
78409;BME280;67697;50.750;-3.270;2023-04-28T04:21:01;100290.43;;;11.05;72.71
78409;BME280;67697;50.750;-3.270;2023-04-28T04:23:26;100293.47;;;10.79;73.08
78409;BME280;67697;50.750;-3.270;2023-04-28T04:25:52;100295.21;;;10.19;74.58
78409;BME280;67697;50.750;-3.270;2023-04-28T04:28:18;100293.79;;;10.38;73.60
78409;BME280;67697;50.750;-3.270;2023-04-28T04:30:43;100290.46;;;10.60;73.32
78409;BME280;67697;50.750;-3.270;2023-04-28T04:33:09;100294.39;;;11.49;70.08
78409;BME280;67697;50.750;-3.270;2023-04-28T04:35:35;100293.88;;;11.18;69.41
78409;BME280;67697;50.750;-3.270;2023-04-28T04:38:01;100293.39;;;11.78;67.17
78409;BME280;67697;50.750;-3.270;2023-04-28T04:40:26;100299.01;;;11.85;67.38
78409;BME280;67697;50.750;-3.270;2023-04-28T04:42:51;100294.33;;;12.23;65.55
78409;BME280;67697;50.750;-3.270;2023-04-28T04:45:17;100299.27;;;13.62;61.57
78409;BME280;67697;50.750;-3.270;2023-04-28T04:47:43;100298.87;;;12.94;62.28
78409;BME280;67697;50.750;-3.270;2023-04-28T04:50:10;100302.66;;;13.10;61.90
78409;BME280;67697;50.750;-3.270;2023-04-28T04:52:34;100303.81;;;13.65;60.88
78409;BME280;67697;50.750;-3.270;2023-04-28T04:55:00;100308.73;;;12.79;61.96
78409;BME280;67697;50.750;-3.270;2023-04-28T04:57:25;100315.01;;;11.72;65.65
78409;BME280;67697;50.750;-3.270;2023-04-28T04:59:51;100314.05;;;12.15;64.34
78409;BME280;67697;50.750;-3.270;2023-04-28T05:02:17;100316.15;;;12.13;65.54
78409;BME280;67697;50.750;-3.270;2023-04-28T05:04:42;100318.02;;;11.62;66.83
78409;BME280;67697;50.750;-3.270;2023-04-28T05:07:08;100313.65;;;10.65;70.15
78409;BME280;67697;50.750;-3.270;2023-04-28T05:09:34;100318.03;;;11.07;68.87
78409;BME280;67697;50.750;-3.270;2023-04-28T05:11:59;100317.98;;;11.22;69.77
78409;BME280;67697;50.750;-3.270;2023-04-28T05:14:25;100322.53;;;11.49;68.81
78409;BME280;67697;50.750;-3.270;2023-04-28T05:16:50;100322.97;;;10.49;71.83
78409;BME280;67697;50.750;-3.270;2023-04-28T05:19:16;100327.39;;;10.83;70.20
78409;BME280;67697;50.750;-3.270;2023-04-28T05:21:42;100331.86;;;10.50;70.13
78409;BME280;67697;50.750;-3.270;2023-04-28T05:24:07;100336.55;;;11.01;70.48
78409;BME280;67697;50.750;-3.270;2023-04-28T05:26:33;100341.68;;;11.03;70.15
78409;BME280;67697;50.750;-3.270;2023-04-28T05:28:58;100344.68;;;11.16;69.66
78409;BME280;67697;50.750;-3.270;2023-04-28T05:31:24;100345.27;;;11.09;70.61
78409;BME280;67697;50.750;-3.270;2023-04-28T05:33:50;100351.73;;;11.34;68.90
78409;BME280;67697;50.750;-3.270;2023-04-28T05:36:15;100357.54;;;11.12;70.15
78409;BME280;67697;50.750;-3.270;2023-04-28T05:38:41;100359.14;;;11.46;68.13
78409;BME280;67697;50.750;-3.270;2023-04-28T05:41:06;100359.10;;;11.69;67.35
78409;BME280;67697;50.750;-3.270;2023-04-28T05:43:32;100358.12;;;12.00;66.81
78409;BME280;67697;50.750;-3.270;2023-04-28T05:45:58;100361.02;;;11.60;67.33
78409;BME280;67697;50.750;-3.270;2023-04-28T05:48:23;100360.70;;;11.87;66.77
78409;BME280;67697;50.750;-3.270;2023-04-28T05:50:49;100363.40;;;11.88;67.07
78409;BME280;67697;50.750;-3.270;2023-04-28T05:53:15;100367.81;;;12.54;65.25
78409;BME280;67697;50.750;-3.270;2023-04-28T05:55:40;100372.46;;;11.79;67.08
78409;BME280;67697;50.750;-3.270;2023-04-28T05:58:06;100375.00;;;11.33;69.45
78409;BME280;67697;50.750;-3.270;2023-04-28T06:00:32;100380.99;;;11.55;69.52
78409;BME280;67697;50.750;-3.270;2023-04-28T06:02:57;100385.17;;;11.60;68.52
78409;BME280;67697;50.750;-3.270;2023-04-28T06:05:23;100388.01;;;11.82;68.68
78409;BME280;67697;50.750;-3.270;2023-04-28T06:07:48;100394.05;;;11.56;69.40
78409;BME280;67697;50.750;-3.270;2023-04-28T06:10:14;100394.46;;;11.26;71.01
78409;BME280;67697;50.750;-3.270;2023-04-28T06:12:40;100399.10;;;11.24;71.11
78409;BME280;67697;50.750;-3.270;2023-04-28T06:15:06;100400.01;;;11.42;70.12
78409;BME280;67697;50.750;-3.270;2023-04-28T06:17:31;100403.04;;;11.59;69.51
78409;BME280;67697;50.750;-3.270;2023-04-28T06:19:56;100402.98;;;11.34;69.87
78409;BME280;67697;50.750;-3.270;2023-04-28T06:22:22;100408.23;;;11.70;69.73
78409;BME280;67697;50.750;-3.270;2023-04-28T06:24:48;100411.35;;;11.39;69.63
78409;BME280;67697;50.750;-3.270;2023-04-28T06:27:13;100415.23;;;11.63;69.67
78409;BME280;67697;50.750;-3.270;2023-04-28T06:29:39;100416.69;;;11.29;70.80
78409;BME280;67697;50.750;-3.270;2023-04-28T06:32:05;100414.82;;;11.70;69.88
78409;BME280;67697;50.750;-3.270;2023-04-28T06:34:30;100420.26;;;11.50;70.99
78409;BME280;67697;50.750;-3.270;2023-04-28T06:36:57;100424.07;;;11.11;71.38
78409;BME280;67697;50.750;-3.270;2023-04-28T06:39:21;100428.58;;;11.22;72.31
78409;BME280;67697;50.750;-3.270;2023-04-28T06:41:47;100430.57;;;11.17;72.12
78409;BME280;67697;50.750;-3.270;2023-04-28T06:44:13;100434.18;;;11.09;71.99
78409;BME280;67697;50.750;-3.270;2023-04-28T06:46:38;100439.16;;;11.28;71.54
78409;BME280;67697;50.750;-3.270;2023-04-28T06:49:04;100448.09;;;10.82;73.35
78409;BME280;67697;50.750;-3.270;2023-04-28T06:51:30;100451.59;;;10.95;73.15
78409;BME280;67697;50.750;-3.270;2023-04-28T06:53:55;100455.27;;;10.53;74.51
78409;BME280;67697;50.750;-3.270;2023-04-28T06:56:21;100457.69;;;11.22;74.05
78409;BME280;67697;50.750;-3.270;2023-04-28T06:58:46;100461.03;;;10.98;73.16
78409;BME280;67697;50.750;-3.270;2023-04-28T07:01:12;100460.22;;;10.51;73.16
78409;BME280;67697;50.750;-3.270;2023-04-28T07:03:38;100468.86;;;11.05;72.63
78409;BME280;67697;50.750;-3.270;2023-04-28T07:06:04;100470.89;;;10.09;74.27
78409;BME280;67697;50.750;-3.270;2023-04-28T07:08:29;100473.22;;;10.49;74.62
78409;BME280;67697;50.750;-3.270;2023-04-28T07:10:55;100474.93;;;10.43;75.66
78409;BME280;67697;50.750;-3.270;2023-04-28T07:13:20;100474.87;;;10.83;73.33
78409;BME280;67697;50.750;-3.270;2023-04-28T07:15:46;100474.76;;;11.27;71.03
78409;BME280;67697;50.750;-3.270;2023-04-28T07:18:11;100477.02;;;11.57;70.68
78409;BME280;67697;50.750;-3.270;2023-04-28T07:20:37;100480.66;;;11.32;71.93
78409;BME280;67697;50.750;-3.270;2023-04-28T07:23:02;100481.49;;;11.09;71.99
78409;BME280;67697;50.750;-3.270;2023-04-28T07:25:28;100486.09;;;11.57;69.67
78409;BME280;67697;50.750;-3.270;2023-04-28T07:27:54;100490.40;;;11.34;71.22
78409;BME280;67697;50.750;-3.270;2023-04-28T07:30:19;100490.11;;;11.40;70.74
78409;BME280;67697;50.750;-3.270;2023-04-28T07:32:45;100493.57;;;10.61;71.71
78409;BME280;67697;50.750;-3.270;2023-04-28T07:35:10;100493.52;;;10.97;72.10
78409;BME280;67697;50.750;-3.270;2023-04-28T07:37:36;100500.92;;;10.84;73.05
78409;BME280;67697;50.750;-3.270;2023-04-28T07:40:03;100500.19;;;11.31;71.17
78409;BME280;67697;50.750;-3.270;2023-04-28T07:42:27;100501.77;;;12.19;68.09
78409;BME280;67697;50.750;-3.270;2023-04-28T07:44:53;100504.66;;;11.85;68.36
78409;BME280;67697;50.750;-3.270;2023-04-28T07:47:19;100509.75;;;11.66;68.62
78409;BME280;67697;50.750;-3.270;2023-04-28T07:49:44;100518.84;;;11.63;70.41
78409;BME280;67697;50.750;-3.270;2023-04-28T07:52:10;100526.92;;;11.45;68.94
78409;BME280;67697;50.750;-3.270;2023-04-28T07:54:36;100524.04;;;11.56;69.82
78409;BME280;67697;50.750;-3.270;2023-04-28T07:57:01;100533.09;;;11.89;67.77
78409;BME280;67697;50.750;-3.270;2023-04-28T07:59:27;100535.28;;;11.76;68.62
78409;BME280;67697;50.750;-3.270;2023-04-28T08:01:52;100544.30;;;11.90;69.24
78409;BME280;67697;50.750;-3.270;2023-04-28T08:04:18;100542.35;;;12.14;67.60
78409;BME280;67697;50.750;-3.270;2023-04-28T08:06:44;100550.99;;;12.64;66.47
78409;BME280;67697;50.750;-3.270;2023-04-28T08:09:09;100550.31;;;11.87;66.92
78409;BME280;67697;50.750;-3.270;2023-04-28T08:11:35;100555.98;;;12.38;66.91
78409;BME280;67697;50.750;-3.270;2023-04-28T08:14:00;100559.75;;;11.49;68.97
78409;BME280;67697;50.750;-3.270;2023-04-28T08:16:26;100559.93;;;11.81;68.65
78409;BME280;67697;50.750;-3.270;2023-04-28T08:18:52;100560.07;;;12.63;66.01
78409;BME280;67697;50.750;-3.270;2023-04-28T08:21:17;100567.77;;;13.34;63.54
78409;BME280;67697;50.750;-3.270;2023-04-28T08:23:43;100570.07;;;13.52;62.49
78409;BME280;67697;50.750;-3.270;2023-04-28T08:26:08;100576.40;;;13.07;60.93
78409;BME280;67697;50.750;-3.270;2023-04-28T08:28:34;100577.52;;;13.69;61.12
78409;BME280;67697;50.750;-3.270;2023-04-28T08:31:00;100582.11;;;13.83;61.04
78409;BME280;67697;50.750;-3.270;2023-04-28T08:33:25;100584.24;;;13.94;60.06
78409;BME280;67697;50.750;-3.270;2023-04-28T08:35:51;100585.27;;;13.40;60.52
78409;BME280;67697;50.750;-3.270;2023-04-28T08:38:16;100585.69;;;13.39;61.43
78409;BME280;67697;50.750;-3.270;2023-04-28T08:40:42;100587.94;;;13.14;61.56
78409;BME280;67697;50.750;-3.270;2023-04-28T08:43:08;100592.21;;;12.59;63.88
78409;BME280;67697;50.750;-3.270;2023-04-28T08:45:39;100593.77;;;12.78;64.65
78409;BME280;67697;50.750;-3.270;2023-04-28T08:48:00;100587.86;;;13.72;60.81
78409;BME280;67697;50.750;-3.270;2023-04-28T08:50:25;100587.66;;;13.71;60.56
78409;BME280;67697;50.750;-3.270;2023-04-28T08:52:51;100592.37;;;13.43;61.69
78409;BME280;67697;50.750;-3.270;2023-04-28T08:55:17;100594.27;;;13.74;62.10
78409;BME280;67697;50.750;-3.270;2023-04-28T08:57:44;100595.90;;;13.63;60.63
78409;BME280;67697;50.750;-3.270;2023-04-28T09:00:08;100600.79;;;13.80;59.67
78409;BME280;67697;50.750;-3.270;2023-04-28T09:02:32;100609.62;;;13.24;61.52
78409;BME280;67697;50.750;-3.270;2023-04-28T09:04:58;100609.74;;;12.62;64.50
78409;BME280;67697;50.750;-3.270;2023-04-28T09:07:24;100612.66;;;12.63;64.22
78409;BME280;67697;50.750;-3.270;2023-04-28T09:09:49;100616.67;;;12.24;64.61
78409;BME280;67697;50.750;-3.270;2023-04-28T09:12:15;100620.41;;;12.84;64.44
78409;BME280;67697;50.750;-3.270;2023-04-28T09:14:41;100623.55;;;12.66;63.67
78409;BME280;67697;50.750;-3.270;2023-04-28T09:17:10;100632.93;;;12.48;63.83
78409;BME280;67697;50.750;-3.270;2023-04-28T09:19:33;100632.52;;;12.69;63.82
78409;BME280;67697;50.750;-3.270;2023-04-28T09:21:57;100637.22;;;12.79;64.46
78409;BME280;67697;50.750;-3.270;2023-04-28T09:24:28;100645.44;;;13.03;63.96
78409;BME280;67697;50.750;-3.270;2023-04-28T09:26:48;100647.28;;;12.33;65.12
78409;BME280;67697;50.750;-3.270;2023-04-28T09:29:14;100656.47;;;13.09;64.01
78409;BME280;67697;50.750;-3.270;2023-04-28T09:31:40;100656.25;;;12.81;64.35
78409;BME280;67697;50.750;-3.270;2023-04-28T09:34:05;100658.25;;;12.69;64.57
78409;BME280;67697;50.750;-3.270;2023-04-28T09:36:31;100661.14;;;13.50;61.30
78409;BME280;67697;50.750;-3.270;2023-04-28T09:38:57;100662.58;;;13.12;62.65
78409;BME280;67697;50.750;-3.270;2023-04-28T09:43:48;100671.52;;;13.19;62.35
78409;BME280;67697;50.750;-3.270;2023-04-28T09:46:27;100670.23;;;12.25;65.06
78409;BME280;67697;50.750;-3.270;2023-04-28T09:48:38;100672.40;;;12.91;64.29
78409;BME280;67697;50.750;-3.270;2023-04-28T09:51:06;100677.96;;;13.42;62.42
78409;BME280;67697;50.750;-3.270;2023-04-28T09:53:30;100678.62;;;13.57;60.95
78409;BME280;67697;50.750;-3.270;2023-04-28T09:55:57;100679.09;;;13.43;62.25
78409;BME280;67697;50.750;-3.270;2023-04-28T09:58:22;100682.79;;;13.56;61.21
78409;BME280;67697;50.750;-3.270;2023-04-28T10:00:51;100687.17;;;12.62;63.21
78409;BME280;67697;50.750;-3.270;2023-04-28T10:03:13;100687.38;;;12.67;63.88
78409;BME280;67697;50.750;-3.270;2023-04-28T10:05:37;100693.97;;;11.96;63.93
78409;BME280;67697;50.750;-3.270;2023-04-28T10:08:04;100691.59;;;12.90;62.41
78409;BME280;67697;50.750;-3.270;2023-04-28T10:10:29;100693.30;;;14.00;60.24
78409;BME280;67697;50.750;-3.270;2023-04-28T10:12:54;100699.96;;;13.36;60.23
78409;BME280;67697;50.750;-3.270;2023-04-28T10:15:20;100700.34;;;12.48;59.29
78409;BME280;67697;50.750;-3.270;2023-04-28T10:17:47;100697.34;;;13.32;59.58
78409;BME280;67697;50.750;-3.270;2023-04-28T10:20:14;100699.89;;;13.42;59.60
78409;BME280;67697;50.750;-3.270;2023-04-28T10:22:48;100704.68;;;14.12;58.56
78409;BME280;67697;50.750;-3.270;2023-04-28T10:25:16;100706.44;;;13.44;58.12
78409;BME280;67697;50.750;-3.270;2023-04-28T10:27:29;100707.16;;;13.71;58.84
78409;BME280;67697;50.750;-3.270;2023-04-28T10:29:53;100713.25;;;14.30;57.42
78409;BME280;67697;50.750;-3.270;2023-04-28T10:32:21;100716.18;;;14.26;59.07
78409;BME280;67697;50.750;-3.270;2023-04-28T10:34:45;100718.98;;;13.82;60.55
78409;BME280;67697;50.750;-3.270;2023-04-28T10:37:10;100720.38;;;13.53;61.75
78409;BME280;67697;50.750;-3.270;2023-04-28T10:39:36;100721.24;;;13.09;63.43
78409;BME280;67697;50.750;-3.270;2023-04-28T10:42:02;100728.64;;;13.85;59.96
78409;BME280;67697;50.750;-3.270;2023-04-28T10:44:40;100732.40;;;13.16;60.03
78409;BME280;67697;50.750;-3.270;2023-04-28T10:46:59;100732.03;;;13.65;60.22
78409;BME280;67697;50.750;-3.270;2023-04-28T10:49:18;100732.65;;;13.38;62.27
78409;BME280;67697;50.750;-3.270;2023-04-28T10:51:44;100731.16;;;13.55;61.26
78409;BME280;67697;50.750;-3.270;2023-04-28T10:54:15;100737.12;;;13.83;60.57
78409;BME280;67697;50.750;-3.270;2023-04-28T10:56:35;100736.35;;;13.24;61.79
78409;BME280;67697;50.750;-3.270;2023-04-28T11:01:27;100737.53;;;14.11;60.70
78409;BME280;67697;50.750;-3.270;2023-04-28T11:03:53;100737.49;;;14.28;59.23
78409;BME280;67697;50.750;-3.270;2023-04-28T11:06:18;100739.80;;;13.34;59.60
78409;BME280;67697;50.750;-3.270;2023-04-28T11:08:42;100731.56;;;13.71;58.95
78409;BME280;67697;50.750;-3.270;2023-04-28T11:11:19;100730.41;;;13.48;60.44
78409;BME280;67697;50.750;-3.270;2023-04-28T11:13:34;100730.30;;;14.29;59.37
78409;BME280;67697;50.750;-3.270;2023-04-28T11:16:02;100731.70;;;13.83;60.28
78409;BME280;67697;50.750;-3.270;2023-04-28T11:18:25;100734.79;;;13.61;60.16
78409;BME280;67697;50.750;-3.270;2023-04-28T11:20:54;100738.51;;;14.30;59.73
78409;BME280;67697;50.750;-3.270;2023-04-28T11:23:17;100736.72;;;14.43;57.95
78409;BME280;67697;50.750;-3.270;2023-04-28T11:25:52;100746.16;;;14.24;57.96
78409;BME280;67697;50.750;-3.270;2023-04-28T11:28:07;100747.97;;;13.90;57.69
78409;BME280;67697;50.750;-3.270;2023-04-28T11:30:32;100754.30;;;14.11;59.51
78409;BME280;67697;50.750;-3.270;2023-04-28T11:32:58;100749.90;;;13.40;59.46
78409;BME280;67697;50.750;-3.270;2023-04-28T11:35:24;100754.76;;;13.38;58.02
78409;BME280;67697;50.750;-3.270;2023-04-28T11:40:15;100759.38;;;13.98;58.29
78409;BME280;67697;50.750;-3.270;2023-04-28T11:42:46;100765.81;;;13.98;56.65
78409;BME280;67697;50.750;-3.270;2023-04-28T11:45:07;100767.57;;;12.63;60.60
78409;BME280;67697;50.750;-3.270;2023-04-28T11:47:32;100768.51;;;13.39;58.86
78409;BME280;67697;50.750;-3.270;2023-04-28T11:49:57;100773.29;;;13.78;58.29
78409;BME280;67697;50.750;-3.270;2023-04-28T11:52:22;100767.66;;;12.71;59.37
78409;BME280;67697;50.750;-3.270;2023-04-28T11:54:52;100769.29;;;13.20;59.30
78409;BME280;67697;50.750;-3.270;2023-04-28T11:57:17;100773.85;;;13.50;60.21
78409;BME280;67697;50.750;-3.270;2023-04-28T11:59:39;100779.90;;;12.16;61.86
78409;BME280;67697;50.750;-3.270;2023-04-28T12:02:05;100782.90;;;13.30;60.54
78409;BME280;67697;50.750;-3.270;2023-04-28T12:04:31;100779.44;;;13.45;59.85
78409;BME280;67697;50.750;-3.270;2023-04-28T12:07:03;100786.74;;;12.69;61.76
78409;BME280;67697;50.750;-3.270;2023-04-28T12:09:21;100786.06;;;14.09;57.71
78409;BME280;67697;50.750;-3.270;2023-04-28T12:11:53;100790.13;;;13.88;59.09
78409;BME280;67697;50.750;-3.270;2023-04-28T12:14:12;100792.36;;;14.04;58.18
78409;BME280;67697;50.750;-3.270;2023-04-28T12:16:41;100792.16;;;14.38;56.79
78409;BME280;67697;50.750;-3.270;2023-04-28T12:19:03;100796.15;;;14.73;55.05
78409;BME280;67697;50.750;-3.270;2023-04-28T12:21:29;100798.34;;;13.87;57.51
78409;BME280;67697;50.750;-3.270;2023-04-28T12:23:54;100800.12;;;13.18;59.05
78409;BME280;67697;50.750;-3.270;2023-04-28T12:26:24;100802.61;;;14.19;56.25
78409;BME280;67697;50.750;-3.270;2023-04-28T12:28:45;100801.81;;;13.78;56.60
78409;BME280;67697;50.750;-3.270;2023-04-28T12:31:10;100802.98;;;13.66;57.61
78409;BME280;67697;50.750;-3.270;2023-04-28T12:33:36;100802.82;;;13.93;56.38
78409;BME280;67697;50.750;-3.270;2023-04-28T12:36:03;100808.55;;;14.27;56.63
78409;BME280;67697;50.750;-3.270;2023-04-28T12:38:27;100800.79;;;14.98;53.77